createdAt,value
2022-08-18T00:01:16.351Z,6.57
2022-08-18T00:03:56.614Z,6.13
2022-08-18T00:06:30.520Z,6.65
2022-08-18T00:09:01.684Z,6.95
2022-08-18T00:11:40.934Z,7.57
2022-08-18T00:14:22.570Z,6.50
2022-08-18T00:16:54.759Z,6.53
2022-08-18T00:19:46.192Z,6.47
2022-08-18T00:22:16.838Z,5.85
2022-08-18T00:24:54.374Z,6.38
2022-08-18T00:27:29.038Z,6.82
2022-08-18T00:30:02.406Z,6.68
2022-08-18T00:32:35.538Z,6.57
2022-08-18T00:35:19.855Z,6.22
2022-08-18T00:37:50.875Z,6.70
2022-08-18T00:40:24.033Z,6.05
2022-08-18T00:42:57.496Z,5.75
2022-08-18T00:45:31.941Z,6.13
2022-08-18T00:48:02.066Z,6.00
2022-08-18T00:50:42.461Z,5.82
2022-08-18T00:53:19.988Z,6.07
2022-08-18T00:55:54.074Z,6.25
2022-08-18T00:58:31.032Z,6.30
2022-08-18T01:01:06.306Z,5.88
2022-08-18T01:03:41.160Z,5.80
2022-08-18T01:06:19.622Z,5.55
2022-08-18T01:08:49.288Z,5.22
2022-08-18T01:11:18.519Z,5.18
2022-08-18T01:13:47.893Z,5.72
2022-08-18T01:16:36.842Z,5.22
2022-08-18T01:19:25.836Z,4.88
2022-08-18T01:22:03.981Z,5.28
2022-08-18T01:24:57.561Z,5.57
2022-08-18T01:27:33.397Z,5.25
2022-08-18T01:30:12.019Z,5.90
2022-08-18T01:32:42.214Z,5.05
2022-08-18T01:35:13.710Z,5.50
2022-08-18T01:37:43.815Z,7.35
2022-08-18T01:41:17.569Z,5.40
2022-08-18T01:43:06.843Z,6.18
2022-08-18T01:45:37.861Z,5.57
2022-08-18T01:48:07.282Z,5.55
2022-08-18T01:50:41.237Z,9.20
2022-08-18T01:53:10.745Z,7.47
2022-08-18T01:55:46.060Z,5.32
2022-08-18T01:58:15.392Z,5.25
2022-08-18T02:00:44.806Z,5.85
2022-08-18T02:03:16.195Z,5.05
2022-08-18T02:05:51.033Z,5.43
2022-08-18T02:08:20.371Z,5.75
2022-08-18T02:10:49.854Z,5.00
2022-08-18T02:13:19.752Z,4.90
2022-08-18T02:15:49.323Z,4.97
2022-08-18T02:18:25.059Z,5.32
2022-08-18T02:21:15.345Z,5.60
2022-08-18T02:23:53.919Z,5.75
2022-08-18T02:26:24.970Z,6.13
2022-08-18T02:28:54.724Z,5.13
2022-08-18T02:31:26.101Z,4.70
2022-08-18T02:33:55.677Z,4.72
2022-08-18T02:36:25.528Z,4.40
2022-08-18T02:38:59.630Z,5.65
2022-08-18T02:41:30.147Z,5.53
2022-08-18T02:44:00.678Z,4.88
2022-08-18T02:46:33.211Z,5.07
2022-08-18T02:49:03.053Z,4.90
2022-08-18T02:51:33.355Z,4.97
2022-08-18T02:54:02.763Z,5.00
2022-08-18T02:56:40.812Z,4.90
2022-08-18T02:59:16.084Z,4.10
2022-08-18T03:01:47.953Z,4.22
2022-08-18T03:04:24.016Z,4.53
2022-08-18T03:06:57.695Z,3.95
2022-08-18T03:09:26.942Z,3.63
2022-08-18T03:11:56.312Z,4.30
2022-08-18T03:14:25.564Z,3.65
2022-08-18T03:16:55.694Z,3.67
2022-08-18T03:19:29.796Z,3.53
2022-08-18T03:22:02.844Z,3.35
2022-08-18T03:24:33.972Z,3.50
2022-08-18T03:27:07.485Z,3.80
2022-08-18T03:29:38.626Z,4.20
2022-08-18T03:32:09.981Z,3.85
2022-08-18T03:34:39.329Z,3.80
2022-08-18T03:37:08.851Z,3.90
2022-08-18T03:39:38.347Z,3.67
2022-08-18T03:42:07.908Z,3.75
2022-08-18T03:44:38.822Z,3.88
2022-08-18T03:47:12.565Z,3.28
2022-08-18T03:49:43.195Z,4.07
2022-08-18T03:52:13.073Z,3.60
2022-08-18T03:54:42.531Z,3.55
2022-08-18T03:57:13.933Z,3.90
2022-08-18T03:59:45.062Z,4.15
2022-08-18T04:02:15.074Z,4.20
2022-08-18T04:04:44.354Z,3.65
2022-08-18T04:07:18.725Z,3.35
2022-08-18T04:09:48.517Z,3.97
2022-08-18T04:12:18.762Z,3.85
2022-08-18T04:14:51.588Z,4.18
2022-08-18T04:17:26.278Z,4.22
2022-08-18T04:19:57.764Z,4.35
2022-08-18T04:22:28.153Z,4.07
2022-08-18T04:24:58.037Z,3.83
2022-08-18T04:27:27.486Z,3.97
2022-08-18T04:29:58.390Z,3.45
2022-08-18T04:32:29.966Z,3.67
2022-08-18T04:35:02.625Z,3.38
2022-08-18T04:37:38.112Z,3.00
2022-08-18T04:40:09.828Z,2.83
2022-08-18T04:42:46.248Z,3.30
2022-08-18T04:45:15.788Z,4.05
2022-08-18T04:47:45.156Z,4.00
2022-08-18T04:50:14.926Z,3.75
2022-08-18T04:53:05.196Z,4.20
2022-08-18T04:55:34.475Z,3.92
2022-08-18T04:58:04.128Z,3.08
2022-08-18T05:00:33.852Z,3.20
2022-08-18T05:03:03.569Z,3.20
2022-08-18T05:05:36.679Z,3.75
2022-08-18T05:08:06.567Z,4.53
2022-08-18T05:10:35.837Z,3.83
2022-08-18T05:13:05.957Z,3.15
2022-08-18T05:15:59.398Z,3.40
2022-08-18T05:18:26.786Z,2.80
2022-08-18T05:20:58.466Z,2.78
2022-08-18T05:23:30.940Z,2.88
2022-08-18T05:26:03.782Z,3.65
2022-08-18T05:28:36.961Z,3.10
2022-08-18T05:31:14.052Z,3.05
2022-08-18T05:33:44.125Z,4.25
2022-08-18T05:36:52.661Z,3.33
2022-08-18T05:39:22.900Z,3.30
2022-08-18T05:42:03.634Z,3.30
2022-08-18T05:44:38.124Z,3.50
2022-08-18T05:47:13.163Z,3.20
2022-08-18T05:49:45.845Z,3.10
2022-08-18T05:55:11.629Z,2.90
2022-08-18T05:57:54.443Z,2.60
2022-08-18T06:03:01.259Z,3.20
2022-08-18T06:05:34.896Z,3.10
2022-08-18T06:08:10.665Z,3.17
2022-08-18T06:10:40.837Z,2.67
2022-08-18T06:13:12.775Z,2.90
2022-08-18T06:15:51.136Z,2.83
2022-08-18T06:18:41.492Z,3.25
2022-08-18T06:21:21.388Z,3.13
2022-08-18T06:24:10.803Z,2.88
2022-08-18T06:27:19.236Z,3.22
2022-08-18T06:30:09.106Z,2.92
2022-08-18T06:33:10.583Z,4.10
2022-08-18T06:35:44.069Z,3.20
2022-08-18T06:38:40.636Z,3.28
2022-08-18T06:41:40.612Z,2.40
2022-08-18T06:44:18.269Z,2.50
2022-08-18T06:46:53.758Z,2.80
2022-08-18T06:49:29.725Z,2.47
2022-08-18T06:51:59.066Z,3.03
2022-08-18T06:54:31.222Z,2.50
2022-08-18T06:57:01.162Z,2.17
2022-08-18T06:59:36.116Z,2.35
2022-08-18T07:02:27.563Z,2.70
2022-08-18T07:05:08.392Z,2.50
2022-08-18T07:07:41.110Z,2.83
2022-08-18T07:10:18.730Z,2.35
2022-08-18T07:12:48.008Z,2.38
2022-08-18T07:15:26.170Z,2.60
2022-08-18T07:18:07.912Z,2.60
2022-08-18T07:20:56.277Z,2.35
2022-08-18T07:23:35.436Z,2.88
2022-08-18T07:26:10.079Z,2.22
2022-08-18T07:28:49.914Z,2.70
2022-08-18T07:31:22.212Z,2.80
2022-08-18T07:33:58.616Z,2.10
2022-08-18T07:36:34.414Z,2.22
2022-08-18T07:39:17.444Z,2.42
2022-08-18T07:41:58.866Z,1.95
2022-08-18T07:44:30.577Z,1.90
2022-08-18T07:47:06.936Z,2.07
2022-08-18T07:49:43.056Z,2.55
2022-08-18T07:52:43.791Z,2.15
2022-08-18T07:55:32.345Z,1.77
2022-08-18T07:58:28.596Z,2.28
2022-08-18T08:01:10.106Z,2.30
2022-08-18T08:03:51.712Z,2.08
2022-08-18T08:07:06.112Z,1.90
2022-08-18T08:09:48.381Z,2.00
2022-08-18T08:12:22.004Z,2.35
2022-08-18T08:14:56.070Z,2.17
2022-08-18T08:17:35.555Z,2.00
2022-08-18T08:20:12.953Z,2.63
2022-08-18T08:22:54.923Z,1.90
2022-08-18T08:25:46.304Z,2.23
2022-08-18T08:28:26.052Z,2.30
2022-08-18T08:31:33.251Z,2.13
2022-08-18T08:34:06.095Z,2.60
2022-08-18T08:36:41.598Z,2.13
2022-08-18T08:39:15.347Z,2.70
2022-08-18T08:42:30.495Z,2.05
2022-08-18T08:45:07.237Z,2.00
2022-08-18T08:48:25.923Z,2.40
2022-08-18T08:51:02.221Z,2.30
2022-08-18T08:53:45.007Z,2.30
2022-08-18T08:56:28.492Z,2.50
2022-08-18T08:59:07.488Z,2.35
2022-08-18T09:02:03.975Z,2.30
2022-08-18T09:04:54.135Z,2.08
2022-08-18T09:07:59.802Z,2.47
2022-08-18T09:10:49.820Z,2.38
2022-08-18T09:13:36.917Z,2.03
2022-08-18T09:16:14.736Z,2.60
2022-08-18T09:22:27.636Z,2.60
2022-08-18T09:24:57.657Z,2.75
2022-08-18T09:28:00.111Z,2.53
2022-08-18T09:31:08.521Z,4.78
2022-08-18T09:33:42.924Z,4.13
2022-08-18T09:36:15.214Z,4.05
2022-08-18T09:39:15.028Z,3.70
2022-08-18T09:41:58.192Z,3.00
2022-08-18T09:44:48.625Z,3.30
2022-08-18T09:47:27.818Z,2.90
2022-08-18T09:50:27.230Z,3.78
2022-08-18T09:53:17.220Z,3.00
2022-08-18T09:56:01.286Z,3.25
2022-08-18T09:58:55.247Z,3.75
2022-08-18T10:24:38.255Z,3.65
2022-08-18T10:27:09.636Z,3.42
2022-08-18T10:29:54.055Z,5.70
2022-08-18T10:32:37.474Z,3.15
2022-08-18T10:35:29.257Z,3.72
2022-08-18T10:38:05.269Z,3.28
2022-08-18T10:40:36.328Z,2.97
2022-08-18T10:43:45.907Z,3.17
2022-08-18T10:49:27.013Z,2.92
2022-08-18T10:52:20.948Z,3.70
2022-08-18T10:55:06.190Z,3.33
2022-08-18T10:57:56.785Z,3.67
2022-08-18T11:00:42.665Z,3.58
2022-08-18T11:06:14.686Z,3.90
2022-08-18T11:08:54.799Z,3.60
2022-08-18T11:11:38.026Z,3.58
2022-08-18T11:14:38.040Z,3.75
2022-08-18T11:17:19.516Z,3.35
2022-08-18T11:22:34.159Z,4.10
2022-08-18T11:25:20.339Z,3.85
2022-08-18T11:27:51.245Z,3.53
2022-08-18T11:30:31.060Z,3.67
2022-08-18T11:35:59.208Z,4.32
2022-08-18T11:38:33.230Z,3.70
2022-08-18T11:44:21.879Z,3.80
2022-08-18T11:46:51.753Z,3.17
2022-08-18T11:49:33.353Z,2.80
2022-08-18T11:52:25.118Z,3.70
2022-08-18T11:55:15.226Z,3.85
2022-08-18T11:57:59.217Z,3.40
2022-08-18T12:00:49.933Z,4.55
2022-08-18T12:03:22.075Z,3.78
2022-08-18T12:05:56.315Z,3.80
2022-08-18T12:11:34.391Z,3.90
2022-08-18T12:14:30.613Z,3.95
2022-08-18T12:17:03.702Z,3.55
2022-08-18T12:19:34.302Z,4.07
2022-08-18T12:22:14.787Z,4.55
2022-08-18T12:24:44.049Z,4.03
2022-08-18T12:27:21.664Z,4.22
2022-08-18T12:29:54.302Z,4.10
2022-08-18T12:32:46.531Z,6.28
2022-08-18T12:35:15.524Z,4.60
2022-08-18T12:38:04.873Z,3.92
2022-08-18T12:40:36.339Z,4.22
2022-08-18T12:43:06.020Z,4.07
2022-08-18T12:45:37.407Z,4.20
2022-08-18T12:48:07.945Z,3.80
2022-08-18T12:50:49.857Z,3.90
2022-08-18T12:53:29.757Z,5.05
2022-08-18T12:56:24.872Z,5.18
2022-08-18T12:58:54.990Z,4.70
2022-08-18T13:01:27.065Z,5.00
2022-08-18T13:04:11.044Z,5.00
2022-08-18T13:07:00.802Z,4.80
2022-08-18T13:09:34.839Z,4.07
2022-08-18T13:12:22.081Z,4.55
2022-08-18T13:14:52.343Z,4.25
2022-08-18T13:17:30.021Z,6.10
2022-08-18T13:20:08.968Z,4.15
2022-08-18T13:22:41.702Z,4.00
2022-08-18T13:25:33.202Z,4.10
2022-08-18T13:28:03.884Z,4.05
2022-08-18T13:30:35.527Z,4.18
2022-08-18T13:33:34.605Z,4.47
2022-08-18T13:35:56.010Z,4.20
2022-08-18T13:38:27.933Z,3.83
2022-08-18T13:41:00.521Z,4.15
2022-08-18T13:43:34.466Z,4.22
2022-08-18T13:46:05.439Z,4.30
2022-08-18T13:48:34.959Z,4.30
2022-08-18T13:51:05.847Z,4.30
2022-08-18T13:53:51.046Z,5.10
2022-08-18T13:56:31.521Z,6.15
2022-08-18T13:59:01.409Z,6.18
2022-08-18T14:01:44.369Z,5.07
2022-08-18T14:04:22.983Z,5.28
2022-08-18T14:06:59.139Z,6.28
2022-08-18T14:09:36.939Z,5.15
2022-08-18T14:12:15.795Z,5.20
2022-08-18T14:14:54.403Z,5.60
2022-08-18T14:17:26.011Z,5.03
2022-08-18T14:20:22.284Z,5.88
2022-08-18T14:23:22.085Z,6.25
2022-08-18T14:26:16.816Z,5.95
2022-08-18T14:28:47.683Z,5.40
2022-08-18T14:31:20.596Z,5.63
2022-08-18T14:33:54.177Z,5.15
2022-08-18T14:36:29.482Z,5.25
2022-08-18T14:39:01.831Z,5.07
2022-08-18T14:41:31.731Z,4.85
2022-08-18T14:44:12.525Z,4.68
2022-08-18T14:46:52.466Z,4.43
2022-08-18T14:49:28.769Z,4.80
2022-08-18T14:52:00.535Z,4.90
2022-08-18T14:54:30.655Z,4.93
2022-08-18T14:57:03.160Z,4.90
2022-08-18T14:59:34.688Z,4.78
2022-08-18T15:02:13.161Z,4.57
2022-08-18T15:04:56.098Z,4.97
2022-08-18T15:07:25.896Z,5.07
2022-08-18T15:10:14.979Z,4.70
2022-08-18T15:12:45.766Z,4.95
2022-08-18T15:15:18.300Z,5.40
2022-08-18T15:20:23.840Z,5.05
2022-08-18T15:23:13.235Z,4.72
2022-08-18T15:25:43.518Z,4.47
2022-08-18T15:28:23.779Z,4.93
2022-08-18T15:33:43.898Z,5.90
2022-08-18T15:36:24.114Z,6.22
2022-08-18T15:39:00.158Z,6.10
2022-08-18T15:41:35.553Z,5.97
2022-08-18T15:44:15.798Z,4.80
2022-08-18T15:46:51.266Z,4.50
2022-08-18T15:49:23.103Z,4.90
2022-08-18T15:51:52.823Z,4.65
2022-08-18T15:54:22.171Z,4.65
2022-08-18T15:56:58.284Z,4.60
2022-08-18T15:59:34.107Z,4.03
2022-08-18T16:02:11.755Z,4.47
2022-08-18T16:04:46.358Z,4.55
2022-08-18T16:07:17.920Z,4.53
2022-08-18T16:09:54.671Z,5.00
2022-08-18T16:12:23.849Z,5.30
2022-08-18T16:14:54.284Z,4.72
2022-08-18T16:17:29.898Z,5.40
2022-08-18T16:20:01.406Z,4.60
2022-08-18T16:22:31.434Z,4.82
2022-08-18T16:25:03.805Z,5.60
2022-08-18T16:27:34.440Z,5.10
2022-08-18T16:30:06.103Z,5.70
2022-08-18T16:32:35.423Z,5.00
2022-08-18T16:35:05.574Z,5.40
2022-08-18T16:37:35.326Z,6.07
2022-08-18T16:40:05.397Z,5.20
2022-08-18T16:42:34.623Z,6.35
2022-08-18T16:45:05.613Z,7.15
2022-08-18T16:47:40.332Z,5.72
2022-08-18T16:50:12.712Z,5.30
2022-08-18T16:52:43.020Z,5.22
2022-08-18T16:55:14.202Z,4.50
2022-08-18T16:58:06.091Z,5.45
2022-08-18T17:03:59.353Z,4.90
2022-08-18T17:06:30.199Z,4.53
2022-08-18T17:09:03.794Z,4.25
2022-08-18T17:11:48.170Z,4.63
2022-08-18T17:14:23.356Z,4.88
2022-08-18T17:16:56.512Z,4.97
2022-08-18T17:19:28.262Z,4.35
2022-08-18T17:21:57.821Z,4.72
2022-08-18T17:24:31.096Z,5.00
2022-08-18T17:27:20.380Z,4.80
2022-08-18T17:30:06.203Z,4.85
2022-08-18T17:32:42.676Z,4.97
2022-08-18T17:35:26.898Z,5.43
2022-08-18T17:38:06.252Z,5.35
2022-08-18T17:40:42.005Z,5.03
2022-08-18T17:43:16.757Z,4.47
2022-08-18T17:45:50.808Z,4.60
2022-08-18T17:48:25.762Z,4.60
2022-08-18T17:51:29.696Z,5.15
2022-08-18T17:54:02.684Z,5.22
2022-08-18T17:56:39.781Z,5.38
2022-08-18T17:59:46.374Z,5.30
2022-08-18T18:02:28.851Z,4.82
2022-08-18T18:05:02.500Z,5.43
2022-08-18T18:07:38.735Z,4.60
2022-08-18T18:10:11.991Z,4.55
2022-08-18T18:12:41.707Z,4.88
2022-08-18T18:15:14.236Z,4.00
2022-08-18T18:17:45.079Z,4.38
2022-08-18T18:20:42.835Z,4.60
2022-08-18T18:23:22.400Z,4.55
2022-08-18T18:25:52.532Z,4.18
2022-08-18T18:28:32.998Z,4.32
2022-08-18T18:31:23.108Z,4.28
2022-08-18T18:33:59.719Z,3.78
2022-08-18T18:36:44.474Z,4.18
2022-08-18T18:39:23.648Z,4.35
2022-08-18T18:42:26.691Z,3.75
2022-08-18T18:44:59.933Z,4.53
2022-08-18T18:47:57.281Z,4.70
2022-08-18T18:50:55.782Z,4.07
2022-08-18T18:53:41.509Z,3.72
2022-08-18T18:56:22.167Z,3.90
2022-08-18T18:58:55.823Z,3.90
2022-08-18T19:01:32.980Z,4.28
2022-08-18T19:04:11.967Z,4.43
2022-08-18T19:06:52.675Z,4.00
2022-08-18T19:09:32.275Z,4.50
2022-08-18T19:12:24.113Z,4.07
2022-08-18T19:15:00.181Z,4.03
2022-08-18T19:17:46.137Z,3.53
2022-08-18T19:20:28.951Z,4.15
2022-08-18T19:23:15.333Z,3.92
2022-08-18T19:26:07.590Z,3.55
2022-08-18T19:29:11.976Z,4.28
2022-08-18T19:31:38.943Z,3.80
2022-08-18T19:34:16.866Z,3.80
2022-08-18T19:37:22.668Z,3.80
2022-08-18T19:40:16.263Z,3.75
2022-08-18T19:42:56.086Z,4.18
2022-08-18T19:45:27.446Z,3.75
2022-08-18T19:48:17.599Z,3.70
2022-08-18T19:50:51.829Z,3.45
2022-08-18T19:53:49.305Z,4.05
2022-08-18T19:56:36.761Z,3.65
2022-08-18T19:59:36.314Z,3.80
2022-08-18T20:02:29.058Z,4.18
2022-08-18T20:05:15.192Z,3.40
2022-08-18T20:08:05.455Z,3.60
2022-08-18T20:10:54.787Z,3.83
2022-08-18T20:13:43.595Z,3.80
2022-08-18T20:16:44.245Z,4.10
2022-08-18T20:19:53.459Z,4.00
2022-08-18T20:22:24.584Z,5.20
2022-08-18T20:25:00.998Z,4.75
2022-08-18T20:27:43.000Z,4.40
2022-08-18T20:30:29.726Z,4.88
2022-08-18T20:33:19.151Z,4.40
2022-08-18T20:36:27.610Z,3.95
2022-08-18T20:38:59.617Z,3.67
2022-08-18T20:41:31.509Z,4.20
2022-08-18T20:44:31.058Z,3.93
2022-08-18T20:47:08.032Z,4.10
2022-08-18T20:49:57.169Z,3.90
2022-08-18T20:52:45.412Z,4.13
2022-08-18T20:55:30.747Z,4.00
2022-08-18T20:58:08.296Z,4.05
2022-08-18T21:00:43.495Z,4.00
2022-08-18T21:03:16.634Z,4.00
2022-08-18T21:05:48.760Z,4.22
2022-08-18T21:08:18.902Z,3.75
2022-08-18T21:11:11.652Z,4.18
2022-08-18T21:13:45.280Z,3.83
2022-08-18T21:16:38.371Z,4.00
2022-08-18T21:19:15.075Z,4.45
2022-08-18T21:21:50.898Z,3.60
2022-08-18T21:24:29.626Z,4.43
2022-08-18T21:27:04.101Z,3.67
2022-08-18T21:29:47.341Z,4.15
2022-08-18T21:32:23.186Z,3.88
2022-08-18T21:34:52.881Z,4.55
2022-08-18T21:37:22.790Z,4.57
2022-08-18T21:39:54.996Z,4.55
2022-08-18T21:42:28.025Z,4.57
2022-08-18T21:45:00.941Z,4.30
2022-08-18T21:47:34.946Z,4.82
2022-08-18T21:50:28.351Z,5.03
2022-08-18T21:52:59.882Z,4.57
2022-08-18T21:55:31.711Z,4.50
2022-08-18T21:58:04.326Z,4.93
2022-08-18T22:00:40.652Z,4.32
2022-08-18T22:03:17.448Z,4.93
2022-08-18T22:05:59.446Z,4.70
2022-08-18T22:08:33.039Z,4.45
2022-08-18T22:11:51.901Z,3.72
2022-08-18T22:14:29.065Z,4.18
2022-08-18T22:17:35.144Z,5.00
2022-08-18T22:20:43.651Z,4.28
2022-08-18T22:23:36.966Z,4.38
2022-08-18T22:26:33.860Z,4.43
2022-08-18T22:29:09.640Z,4.38
2022-08-18T22:31:47.542Z,5.15
2022-08-18T22:34:28.020Z,4.90
2022-08-18T22:37:04.310Z,5.07
2022-08-18T22:39:42.920Z,4.43
2022-08-18T22:42:13.351Z,5.20
2022-08-18T22:44:43.038Z,5.45
2022-08-18T22:47:13.113Z,5.00
2022-08-18T22:49:42.978Z,4.63
2022-08-18T22:52:20.671Z,4.72
2022-08-18T22:55:00.676Z,4.50
2022-08-18T22:57:35.958Z,4.55
2022-08-18T23:00:11.765Z,4.30
2022-08-18T23:02:40.997Z,4.47
2022-08-18T23:05:13.479Z,4.53
2022-08-18T23:07:42.679Z,5.57
2022-08-18T23:10:13.705Z,5.38
2022-08-18T23:12:44.947Z,4.82
2022-08-18T23:15:14.735Z,5.30
2022-08-18T23:20:30.046Z,5.82
2022-08-18T23:23:06.338Z,5.30
2022-08-18T23:25:35.639Z,7.20
2022-08-18T23:28:04.519Z,6.72
2022-08-18T23:30:33.414Z,5.82
2022-08-18T23:33:02.302Z,5.45
2022-08-18T23:35:31.290Z,5.53
2022-08-18T23:38:00.248Z,6.10
2022-08-18T23:40:30.688Z,5.75
2022-08-18T23:42:59.499Z,5.32
2022-08-18T23:45:30.096Z,5.72
2022-08-18T23:47:58.953Z,6.32
2022-08-18T23:50:30.460Z,5.97
2022-08-18T23:53:00.874Z,6.50
2022-08-18T23:55:30.160Z,6.55
2022-08-18T23:57:59.190Z,6.25
